Time;durP1;ratioP1;P1;durP2;ratioP2;P2;SDS_P1;SDS_P2;PMS_P1;PMS_P2;Temp;Humidity;BMP_temperature;BMP_pressure;BME280_temperature;BME280_humidity;BME280_pressure;Samples;Min_cycle;Max_cycle;Signal;HPM_P1;HPM_P2
2022/08/13 00:00:37;;;;;;;3.28;2.78;;;;;;;17.42;77.36;101298.59;4881368;29;20054;-76
2022/08/13 00:03:14;;;;;;;2.72;2.42;;;;;;;17.37;77.66;101304.09;4903545;29;20406;-76
2022/08/13 00:06:08;;;;;;;3.25;2.50;;;;;;;17.29;77.73;101295.50;4904977;29;20409;-76
2022/08/13 00:08:48;;;;;;;5.22;2.85;;;;;;;17.24;77.82;101300.16;4878048;29;20424;-76
2022/08/13 00:12:56;;;;;;;4.05;2.60;;;;;;;17.19;78.19;101294.13;4898097;29;20051;-76
2022/08/13 00:14:24;;;;;;;7.65;2.90;;;;;;;17.15;78.25;101295.16;4910547;29;20438;-76
2022/08/13 00:17:07;;;;;;;3.58;2.55;;;;;;;17.08;78.52;101294.53;4893362;29;20044;-77
2022/08/13 00:19:38;;;;;;;3.60;2.67;;;;;;;17.04;79.03;101297.34;4895890;29;20043;-76
2022/08/13 00:22:05;;;;;;;3.85;2.63;;;;;;;17.00;79.30;101301.09;4892698;29;20088;-76
2022/08/13 00:24:52;;;;;;;5.68;3.08;;;;;;;16.98;79.48;101298.44;4893879;29;20036;-76
2022/08/13 00:27:22;;;;;;;4.65;3.35;;;;;;;16.95;79.76;101295.91;4879576;29;20422;-76
2022/08/13 00:29:50;;;;;;;4.63;3.33;;;;;;;16.92;79.92;101293.34;4873854;29;20454;-76
2022/08/13 00:32:29;;;;;;;5.05;3.35;;;;;;;16.87;80.11;101288.16;4872245;29;20119;-76
2022/08/13 00:34:59;;;;;;;4.35;3.10;;;;;;;16.85;80.71;101286.50;4892313;29;20559;-77
2022/08/13 00:37:27;;;;;;;3.63;2.75;;;;;;;16.81;81.38;101282.19;4902213;29;20062;-76
2022/08/13 00:40:00;;;;;;;5.60;3.10;;;;;;;16.77;82.27;101284.09;4910978;29;20040;-76
2022/08/13 00:42:50;;;;;;;3.83;2.92;;;;;;;16.72;82.52;101279.84;4876940;29;20036;-77
2022/08/13 00:45:17;;;;;;;2.95;2.67;;;;;;;16.67;82.93;101280.00;4854874;29;20068;-77
2022/08/13 00:50:34;;;;;;;3.75;2.78;;;;;;;16.63;82.94;101283.69;4887157;29;20066;-78
2022/08/13 00:53:04;;;;;;;4.20;3.00;;;;;;;16.59;83.39;101282.06;4896147;29;20458;-78
2022/08/13 00:55:31;;;;;;;3.17;2.67;;;;;;;16.55;83.98;101272.41;4900541;29;20038;-78
2022/08/13 00:57:58;;;;;;;3.80;2.83;;;;;;;16.50;84.57;101280.59;4880992;29;20049;-77
2022/08/13 01:00:28;;;;;;;3.70;2.95;;;;;;;16.47;84.79;101277.16;4881245;29;20044;-78
2022/08/13 01:02:56;;;;;;;3.72;2.83;;;;;;;16.44;85.02;101272.78;4897237;29;20266;-77
2022/08/13 01:05:43;;;;;;;5.80;3.35;;;;;;;16.43;85.03;101272.84;4878884;29;20036;-76
2022/08/13 01:08:16;;;;;;;4.85;2.97;;;;;;;16.43;86.40;101275.53;4893753;29;20032;-77
2022/08/13 01:10:48;;;;;;;4.70;3.40;;;;;;;16.37;86.70;101268.59;4874667;29;20047;-77
2022/08/13 01:13:28;;;;;;;3.78;3.20;;;;;;;16.32;86.97;101271.44;4893353;29;20044;-77
2022/08/13 01:15:58;;;;;;;4.68;3.22;;;;;;;16.28;86.98;101275.13;4868621;29;20044;-76
2022/08/13 01:18:28;;;;;;;3.20;2.90;;;;;;;16.27;87.42;101267.19;4906721;29;20421;-77
2022/08/13 01:21:13;;;;;;;3.97;2.85;;;;;;;16.21;88.09;101264.72;4892220;29;20051;-76
2022/08/13 01:23:43;;;;;;;3.65;2.90;;;;;;;16.17;88.95;101265.75;4869458;29;20048;-76
2022/08/13 01:26:32;;;;;;;4.63;3.08;;;;;;;16.13;89.50;101264.09;4887668;29;20052;-77
2022/08/13 01:29:04;;;;;;;4.88;3.95;;;;;;;16.09;89.61;101270.47;4900202;29;20068;-77
2022/08/13 01:31:36;;;;;;;4.43;3.05;;;;;;;16.05;89.80;101259.91;4907380;29;20046;-77
2022/08/13 01:34:04;;;;;;;4.38;3.92;;;;;;;16.03;90.48;101263.53;4857818;29;20047;-76
2022/08/13 01:36:35;;;;;;;7.53;3.35;;;;;;;16.00;91.57;101258.31;4876692;29;20040;-76
2022/08/13 01:39:26;;;;;;;4.93;3.90;;;;;;;15.94;92.60;101258.53;4887415;29;20144;-77
2022/08/13 01:42:02;;;;;;;4.30;3.30;;;;;;;15.89;92.59;101257.78;4873863;29;20139;-76
2022/08/13 01:44:31;;;;;;;3.85;3.33;;;;;;;15.87;92.90;101259.63;4875861;29;20130;-77
2022/08/13 01:50:29;;;;;;;3.95;3.40;;;;;;;15.81;93.12;101250.06;4878625;29;20130;-76
2022/08/13 01:53:11;;;;;;;4.65;3.05;;;;;;;15.77;93.55;101243.97;4885852;29;20054;-76
2022/08/13 01:55:52;;;;;;;7.75;3.55;;;;;;;15.72;93.70;101248.59;4894539;29;20067;-76
2022/08/13 01:58:41;;;;;;;6.85;3.38;;;;;;;15.69;93.72;101254.00;4878309;29;20048;-78
2022/08/13 02:01:32;;;;;;;4.05;3.33;;;;;;;15.67;94.09;101258.50;4876424;29;20097;-77
2022/08/13 02:04:13;;;;;;;5.93;3.70;;;;;;;15.63;94.66;101251.50;4917997;29;20395;-77
2022/08/13 02:06:50;;;;;;;3.80;3.22;;;;;;;15.61;94.76;101252.50;4915940;29;20108;-77
2022/08/13 02:09:23;;;;;;;3.40;3.10;;;;;;;15.57;94.67;101259.69;4893742;29;20131;-78
2022/08/13 02:12:15;;;;;;;4.38;3.53;;;;;;;15.57;94.95;101259.69;4897353;29;20052;-78
2022/08/13 02:15:05;;;;;;;5.10;3.85;;;;;;;15.55;94.92;101253.50;4895760;29;20139;-77
2022/08/13 02:17:40;;;;;;;3.53;3.20;;;;;;;15.50;95.37;101255.47;4891938;29;20036;-77
2022/08/13 02:20:34;;;;;;;3.88;3.45;;;;;;;15.46;96.07;101261.78;4896234;29;20611;-76
2022/08/13 02:23:08;;;;;;;4.82;3.20;;;;;;;15.45;96.11;101262.72;4895333;29;20454;-76
2022/08/13 02:25:36;;;;;;;4.85;3.58;;;;;;;15.45;96.22;101254.72;4893622;29;20036;-77
2022/08/13 02:28:05;;;;;;;5.80;3.47;;;;;;;15.44;96.37;101255.66;4882753;29;20059;-77
2022/08/13 02:30:49;;;;;;;5.75;3.65;;;;;;;15.39;97.22;101246.97;4877097;29;20044;-77
2022/08/13 02:33:21;;;;;;;7.00;3.77;;;;;;;15.37;97.89;101240.78;4869819;29;20127;-77
2022/08/13 02:35:51;;;;;;;4.03;3.63;;;;;;;15.32;98.50;101237.41;4884056;29;20291;-77
2022/08/13 02:38:18;;;;;;;6.03;3.95;;;;;;;15.26;99.42;101241.13;4903647;29;20040;-77
2022/08/13 02:43:46;;;;;;;5.32;3.90;;;;;;;15.21;100.00;101248.38;4904888;29;20349;-77
2022/08/13 02:46:26;;;;;;;4.38;3.80;;;;;;;15.21;99.78;101240.38;4912391;29;20068;-77
2022/08/13 02:48:53;;;;;;;5.30;3.78;;;;;;;15.20;99.61;101250.16;4911871;23;20052;-77
2022/08/13 02:51:22;;;;;;;4.22;3.83;;;;;;;15.20;99.36;101242.16;4879864;29;20040;-76
2022/08/13 02:54:09;;;;;;;3.80;3.50;;;;;;;15.20;99.08;101236.84;4893236;29;20061;-76
2022/08/13 02:56:38;;;;;;;4.72;3.75;;;;;;;15.15;99.28;101246.78;4874449;29;20051;-76
2022/08/13 02:59:08;;;;;;;5.55;4.10;;;;;;;15.13;99.48;101245.97;4888267;29;20044;-76
2022/08/13 03:01:56;;;;;;;4.25;3.65;;;;;;;15.13;99.87;101245.97;4901766;29;20035;-77
2022/08/13 03:04:22;;;;;;;4.90;4.05;;;;;;;15.15;99.79;101236.13;4887531;29;20043;-77
2022/08/13 03:07:00;;;;;;;5.88;4.00;;;;;;;15.19;100.00;101234.25;4862370;29;20042;-77
2022/08/13 03:09:28;;;;;;;5.38;3.50;;;;;;;15.13;100.00;101237.97;4875106;29;20052;-77
2022/08/13 03:11:58;;;;;;;4.55;4.00;;;;;;;15.11;100.00;101239.78;4881705;29;20060;-77
2022/08/13 03:14:30;;;;;;;5.28;3.83;;;;;;;15.10;100.00;101229.19;4874166;29;20044;-76
2022/08/13 03:16:57;;;;;;;3.92;3.45;;;;;;;15.09;100.00;101233.66;4863588;29;20044;-77
2022/08/13 03:19:25;;;;;;;9.07;3.75;;;;;;;15.08;100.00;101233.69;4866358;29;20064;-77
2022/08/13 03:21:52;;;;;;;6.45;4.15;;;;;;;15.08;100.00;101231.03;4883854;29;20048;-77
2022/08/13 03:24:21;;;;;;;5.07;3.55;;;;;;;15.07;100.00;101235.50;4870490;29;20498;-77
2022/08/13 03:27:01;;;;;;;4.28;3.85;;;;;;;15.10;100.00;101242.50;4863251;29;20139;-77
2022/08/13 03:29:29;;;;;;;5.18;3.75;;;;;;;15.09;100.00;101246.94;4884379;29;20660;-77
2022/08/13 03:32:20;;;;;;;5.65;3.50;;;;;;;15.09;100.00;101236.31;4883174;29;20052;-78
2022/08/13 03:34:57;;;;;;;5.28;3.67;;;;;;;15.06;100.00;101236.41;4900773;29;20044;-78
2022/08/13 03:37:25;;;;;;;4.68;3.83;;;;;;;15.05;100.00;101234.66;4884509;29;20101;-78
2022/08/13 03:39:52;;;;;;;5.45;3.60;;;;;;;15.04;100.00;101232.03;4867366;29;20065;-78
2022/08/13 03:42:19;;;;;;;5.03;3.35;;;;;;;15.02;100.00;101233.88;4884146;29;20072;-78
2022/08/13 03:45:10;;;;;;;5.43;3.90;;;;;;;14.99;100.00;101232.19;4895273;29;21431;-78
2022/08/13 03:47:39;;;;;;;8.65;4.40;;;;;;;15.00;100.00;101228.59;4897652;29;20091;-77
2022/08/13 03:50:07;;;;;;;4.72;3.80;;;;;;;15.00;100.00;101235.72;4882049;29;20167;-78
2022/08/13 03:52:35;;;;;;;5.85;4.07;;;;;;;14.99;100.00;101228.66;4880347;29;20059;-78
2022/08/13 03:55:09;;;;;;;3.88;3.47;;;;;;;14.95;100.00;101225.19;4877962;29;20109;-77
2022/08/13 03:57:40;;;;;;;5.88;4.22;;;;;;;14.98;100.00;101225.13;4884462;29;20120;-78
2022/08/13 04:00:28;;;;;;;4.40;4.00;;;;;;;14.98;100.00;101225.13;4882179;29;20045;-78
2022/08/13 04:02:56;;;;;;;5.10;3.40;;;;;;;14.96;100.00;101226.94;4882757;29;20044;-78
2022/08/13 04:05:23;;;;;;;6.55;4.95;;;;;;;14.99;100.00;101229.53;4891331;29;20052;-77
2022/08/13 04:08:10;;;;;;;5.43;4.18;;;;;;;15.07;100.00;101230.16;4877429;29;20104;-78
2022/08/13 04:10:41;;;;;;;4.70;3.92;;;;;;;15.15;100.00;101229.94;4893684;29;20040;-78
2022/08/13 04:13:19;;;;;;;4.28;3.88;;;;;;;15.19;100.00;101221.78;4867932;29;20055;-78
2022/08/13 04:16:10;;;;;;;4.65;3.75;;;;;;;15.27;100.00;101218.91;4877271;29;20051;-77
2022/08/13 04:18:39;;;;;;;7.03;4.00;;;;;;;15.33;100.00;101223.19;4894848;29;20040;-78
2022/08/13 04:21:08;;;;;;;5.25;4.13;;;;;;;15.38;100.00;101222.09;4868291;29;20043;-77
2022/08/13 04:23:39;;;;;;;5.32;3.50;;;;;;;15.44;100.00;101215.72;4874097;29;20559;-77
2022/08/13 04:26:08;;;;;;;4.32;3.70;;;;;;;15.48;100.00;101220.91;4888881;29;20060;-77
2022/08/13 04:28:39;;;;;;;4.00;3.60;;;;;;;15.51;100.00;101219.06;4890628;29;20516;-77
2022/08/13 04:31:10;;;;;;;5.47;3.28;;;;;;;15.54;100.00;101214.50;4860307;29;20044;-77
2022/08/13 04:33:37;;;;;;;5.10;3.83;;;;;;;15.61;100.00;101204.56;4872660;29;20051;-77
2022/08/13 04:36:25;;;;;;;4.68;3.70;;;;;;;15.69;100.00;101211.38;4880356;29;20096;-77
2022/08/13 04:38:54;;;;;;;4.90;3.67;;;;;;;15.80;100.00;101207.47;4872953;29;20056;-77
2022/08/13 04:41:21;;;;;;;5.75;3.85;;;;;;;15.79;100.00;101203.94;4893629;29;20104;-77
2022/08/13 04:43:48;;;;;;;9.73;4.22;;;;;;;15.84;100.00;101210.00;4893553;29;20069;-77
2022/08/13 04:46:30;;;;;;;11.40;4.28;;;;;;;15.89;100.00;101209.81;4891091;29;20044;-78
2022/08/13 04:48:57;;;;;;;7.40;4.57;;;;;;;16.02;99.88;101214.69;4877359;29;20399;-78
2022/08/13 04:51:25;;;;;;;4.97;3.50;;;;;;;16.07;100.00;101209.22;4860856;29;20080;-78
2022/08/13 04:54:04;;;;;;;5.60;3.63;;;;;;;16.20;99.58;101212.31;4893321;29;20055;-78
2022/08/13 04:56:31;;;;;;;5.00;3.90;;;;;;;16.33;98.66;101214.50;4861466;29;20124;-78
2022/08/13 04:58:58;;;;;;;4.28;3.45;;;;;;;16.41;99.22;101216.91;4880071;29;20583;-78
2022/08/13 05:01:29;;;;;;;4.55;3.72;;;;;;;16.49;99.08;101213.97;4888504;29;20060;-78
2022/08/13 05:04:17;;;;;;;6.53;4.20;;;;;;;16.68;97.75;101214.16;4890673;29;20096;-78
2022/08/13 05:06:51;;;;;;;5.90;4.10;;;;;;;16.84;97.56;101208.22;4898049;29;20037;-78
2022/08/13 05:09:21;;;;;;;4.45;3.17;;;;;;;16.93;97.37;101214.16;4879188;29;20056;-78
2022/08/13 05:11:58;;;;;;;5.40;3.13;;;;;;;17.03;97.31;101208.41;4874108;29;20052;-78
2022/08/13 05:14:31;;;;;;;;;;;;;;;17.19;96.10;101210.47;4879852;29;20037;-78
2022/08/13 05:17:03;;;;;;;4.30;3.50;;;;;;;17.30;95.32;101209.13;4896944;29;19992;-78
2022/08/13 05:19:30;;;;;;;5.40;4.25;;;;;;;17.43;94.11;101210.38;4878785;29;20042;-78
2022/08/13 05:22:06;;;;;;;4.18;3.45;;;;;;;17.57;93.18;101198.25;4890647;29;20124;-77
2022/08/13 05:24:51;;;;;;;6.13;3.55;;;;;;;17.71;92.53;101204.81;4859007;29;20048;-78
2022/08/13 05:27:40;;;;;;;5.03;3.75;;;;;;;17.84;91.61;101209.66;4877695;29;20813;-78
2022/08/13 05:30:12;;;;;;;6.38;3.55;;;;;;;17.96;91.54;101210.00;4859061;29;20052;-77
2022/08/13 05:32:57;;;;;;;6.20;3.90;;;;;;;18.11;90.53;101204.94;4882920;29;20044;-77
2022/08/13 05:35:26;;;;;;;5.13;3.97;;;;;;;18.21;88.33;101199.13;4897864;29;20037;-78
2022/08/13 05:38:16;;;;;;;5.13;3.30;;;;;;;18.32;87.67;101193.28;4891718;29;20119;-77
2022/08/13 05:40:51;;;;;;;6.07;4.00;;;;;;;18.45;87.59;101190.94;4879316;29;20048;-76
2022/08/13 05:43:23;;;;;;;5.00;3.40;;;;;;;18.55;87.76;101193.13;4885457;29;20570;-77
2022/08/13 05:45:57;;;;;;;6.32;4.22;;;;;;;18.67;88.28;101193.56;4892963;29;20311;-78
2022/08/13 05:48:37;;;;;;;5.30;3.78;;;;;;;18.78;87.33;101196.63;4871989;29;20048;-79
2022/08/13 05:51:08;;;;;;;6.00;3.85;;;;;;;18.89;85.50;101194.31;4884739;29;20108;-78
2022/08/13 05:53:37;;;;;;;6.03;3.67;;;;;;;19.02;84.61;101191.94;4879992;29;20044;-78
2022/08/13 05:56:25;;;;;;;5.70;4.07;;;;;;;19.15;83.70;101194.88;4892261;29;20447;-79
2022/08/13 05:58:52;;;;;;;5.28;4.13;;;;;;;19.27;82.06;101194.31;4882264;29;20052;-79
2022/08/13 06:04:19;;;;;;;4.20;3.25;;;;;;;19.66;80.27;101191.50;4872004;29;20525;-76
2022/08/13 06:07:04;;;;;;;5.20;4.10;;;;;;;19.90;78.55;101192.09;4899206;29;20502;-77
2022/08/13 06:09:30;;;;;;;4.75;3.42;;;;;;;20.12;76.96;101190.06;4896837;29;20064;-78
2022/08/13 06:11:59;;;;;;;5.13;4.40;;;;;;;20.37;73.14;101196.84;4867949;29;20506;-78
2022/08/13 06:14:46;;;;;;;4.10;3.60;;;;;;;20.60;74.04;101193.84;4888290;29;20044;-78
2022/08/13 06:17:21;;;;;;;4.22;3.72;;;;;;;20.69;74.35;101190.66;4884183;29;20489;-79
2022/08/13 06:19:51;;;;;;;5.03;3.53;;;;;;;20.74;74.10;101190.38;4890083;29;20434;-79
2022/08/13 06:22:21;;;;;;;4.82;4.03;;;;;;;20.78;72.84;101189.28;4880692;29;20293;-78
2022/08/13 06:24:52;;;;;;;6.28;4.45;;;;;;;20.93;70.83;101187.53;4876172;29;20033;-78
2022/08/13 06:27:23;;;;;;;5.53;4.13;;;;;;;20.96;71.16;101195.47;4879657;29;20043;-78
2022/08/13 06:30:11;;;;;;;5.90;4.78;;;;;;;21.05;69.97;101195.81;4890462;29;20056;-78
2022/08/13 06:32:39;;;;;;;6.25;3.90;;;;;;;21.10;68.97;101198.22;4879361;29;20044;-77
2022/08/13 06:35:28;;;;;;;8.05;5.38;;;;;;;21.16;69.75;101203.25;4877956;29;20072;-77
2022/08/13 06:38:13;;;;;;;5.15;3.92;;;;;;;21.20;69.96;101199.47;4893483;29;20483;-79
2022/08/13 06:40:54;;;;;;;4.30;3.90;;;;;;;21.29;69.51;101198.13;4874876;29;20049;-80
2022/08/13 06:43:22;;;;;;;6.63;4.60;;;;;;;21.41;70.12;101201.91;4873818;23;20045;-77
2022/08/13 06:45:49;;;;;;;5.25;4.05;;;;;;;21.53;69.87;101193.16;4869020;29;20041;-79
2022/08/13 06:48:20;;;;;;;5.32;4.60;;;;;;;21.69;68.26;101193.97;4858725;29;20255;-79
2022/08/13 06:51:05;;;;;;;4.50;3.90;;;;;;;21.78;68.09;101201.53;4846649;29;20415;-78
2022/08/13 06:53:35;;;;;;;7.55;4.68;;;;;;;21.89;66.42;101193.69;4843172;29;20037;-78
2022/08/13 06:56:24;;;;;;;7.78;4.63;;;;;;;21.95;65.93;101199.69;4842534;29;20101;-78
2022/08/13 06:59:03;;;;;;;4.65;4.25;;;;;;;22.02;66.85;101195.63;4854574;29;20038;-79
2022/08/13 07:01:42;;;;;;;8.73;4.95;;;;;;;22.05;66.72;101199.03;4846499;29;20499;-78
2022/08/13 07:04:29;;;;;;;9.52;6.20;;;;;;;22.14;67.31;101205.72;4839237;29;20045;-78
2022/08/13 07:06:59;;;;;;;7.50;5.32;;;;;;;22.26;65.35;101204.97;4846836;29;20041;-78
2022/08/13 07:09:30;;;;;;;6.05;4.65;;;;;;;22.35;65.08;101211.63;4853915;29;20160;-78
2022/08/13 07:12:12;;;;;;;6.45;4.38;;;;;;;22.34;63.63;101215.28;4847030;29;20056;-78
2022/08/13 07:14:43;;;;;;;7.28;4.95;;;;;;;22.35;65.31;101215.16;4852639;29;20085;-78
2022/08/13 07:17:13;;;;;;;5.72;4.32;;;;;;;22.38;64.50;101212.31;4856731;29;20148;-78
2022/08/13 07:19:40;;;;;;;8.80;4.88;;;;;;;22.43;66.19;101209.31;4834951;29;20042;-79
2022/08/13 07:22:27;;;;;;;5.90;4.38;;;;;;;22.58;63.48;101207.53;4838336;29;20057;-78
2022/08/13 07:25:14;;;;;;;5.72;5.15;;;;;;;22.75;63.06;101204.63;4858837;29;20041;-80
2022/08/13 07:27:42;;;;;;;5.93;4.47;;;;;;;22.89;61.90;101204.69;4866389;29;20048;-80
2022/08/13 07:30:19;;;;;;;4.90;4.50;;;;;;;23.01;61.52;101198.50;4851424;29;20049;-80
2022/08/13 07:32:47;;;;;;;6.15;4.97;;;;;;;23.23;61.06;101199.81;4833079;29;20037;-79
2022/08/13 07:35:21;;;;;;;4.63;3.95;;;;;;;23.39;60.67;101205.97;4836907;29;20056;-79
2022/08/13 07:37:52;;;;;;;7.28;4.97;;;;;;;23.50;59.62;101200.72;4856669;29;20737;-79
2022/08/13 07:40:19;;;;;;;6.05;5.45;;;;;;;23.59;59.61;101200.13;4834909;29;20064;-79
2022/08/13 07:42:49;;;;;;;6.40;4.80;;;;;;;23.75;58.98;101202.69;4853562;29;20066;-79
2022/08/13 07:45:25;;;;;;;5.60;4.82;;;;;;;23.92;58.73;101200.69;4840626;29;20052;-79
2022/08/13 07:48:12;;;;;;;5.20;4.70;;;;;;;24.05;58.18;101201.59;4837639;29;20041;-78
2022/08/13 07:51:03;;;;;;;5.75;5.10;;;;;;;24.33;57.22;101208.69;4845151;29;20041;-79
2022/08/13 07:53:35;;;;;;;5.30;4.80;;;;;;;24.45;58.10;101206.94;4858292;29;20045;-79
2022/08/13 07:56:28;;;;;;;5.57;4.88;;;;;;;24.60;57.09;101213.97;4859377;29;20062;-79
2022/08/13 07:59:02;;;;;;;6.00;5.40;;;;;;;24.65;56.76;101203.72;4850884;29;20132;-79
2022/08/13 08:01:34;;;;;;;6.97;5.50;;;;;;;24.72;57.47;101205.03;4860965;29;20127;-79
2022/08/13 08:04:24;;;;;;;6.32;5.60;;;;;;;24.88;56.22;101204.75;4854000;29;20093;-79
2022/08/13 08:06:56;;;;;;;6.25;5.65;;;;;;;24.97;57.62;101196.88;4855825;29;20044;-78
2022/08/13 08:09:26;;;;;;;6.72;5.68;;;;;;;25.10;56.65;101205.00;4852359;29;20078;-80
2022/08/13 08:14:53;;;;;;;7.07;5.93;;;;;;;25.07;56.00;101213.34;5042581;28;20033;-78
2022/08/13 08:17:26;;;;;;;8.23;5.97;;;;;;;25.16;55.86;101209.09;5030194;28;20124;-77
2022/08/13 08:20:21;;;;;;;9.45;6.15;;;;;;;25.24;56.27;101206.69;5035469;28;20038;-77
2022/08/13 08:23:04;;;;;;;8.05;6.38;;;;;;;25.33;55.62;101208.72;5013008;28;20050;-77
2022/08/13 08:25:32;;;;;;;9.20;6.78;;;;;;;25.41;54.91;101206.31;5023377;28;20482;-77
2022/08/13 08:28:18;;;;;;;6.65;5.97;;;;;;;25.45;55.19;101215.06;5019531;28;20041;-78
2022/08/13 08:31:06;;;;;;;7.10;6.00;;;;;;;25.52;55.24;101219.03;5014325;28;20509;-78
2022/08/13 08:33:57;;;;;;;9.15;6.07;;;;;;;25.67;55.13;101212.50;5025961;28;20048;-78
2022/08/13 08:36:26;;;;;;;449.50;77.45;;;;;;;25.91;54.70;101215.22;5011619;28;20505;-78
2022/08/13 08:44:41;;;;;;;6.82;6.13;;;;;;;27.09;51.11;101206.00;5014383;28;20055;-77
2022/08/13 08:47:10;;;;;;;7.97;5.93;;;;;;;27.36;50.68;101198.31;5024948;28;20045;-76
2022/08/13 08:49:39;;;;;;;6.18;5.57;;;;;;;27.29;49.20;101202.50;5026975;28;20040;-76
2022/08/13 08:52:11;;;;;;;7.50;6.05;;;;;;;27.13;50.02;101204.75;5029581;28;20068;-77
2022/08/13 08:54:43;;;;;;;6.95;6.18;;;;;;;27.13;51.06;101202.03;5025434;28;20033;-77
2022/08/13 08:57:13;;;;;;;6.28;5.78;;;;;;;27.19;49.55;101204.25;5057443;28;20070;-77
2022/08/13 08:59:41;;;;;;;10.50;6.38;;;;;;;27.33;49.80;101198.59;5026513;28;20120;-77
2022/08/13 09:02:23;;;;;;;7.63;6.10;;;;;;;27.58;47.60;101207.38;5022379;28;20069;-76
2022/08/13 09:04:57;;;;;;;8.13;6.13;;;;;;;27.62;48.84;101195.28;5009788;28;20041;-77
2022/08/13 09:07:46;;;;;;;6.25;5.65;;;;;;;28.02;47.15;101190.09;5043503;28;20065;-77
2022/08/13 09:10:15;;;;;;;6.97;6.00;;;;;;;28.23;46.77;101190.09;5008430;28;20045;-77
2022/08/13 09:12:56;;;;;;;7.60;6.55;;;;;;;28.48;46.97;101187.00;5048592;28;20045;-77
2022/08/13 09:15:23;;;;;;;7.30;5.80;;;;;;;29.10;45.06;101183.31;5025949;28;20045;-77
2022/08/13 09:17:57;;;;;;;13.88;7.78;;;;;;;29.51;44.30;101186.84;5027901;28;20045;-77
2022/08/13 09:20:26;;;;;;;6.82;6.13;;;;;;;29.70;42.73;101176.00;5007219;28;20065;-77
2022/08/13 09:23:08;;;;;;;10.07;5.93;;;;;;;29.50;42.83;101182.41;5015799;28;20510;-77
2022/08/13 09:25:53;;;;;;;8.52;5.88;;;;;;;29.32;43.59;101192.25;5030162;28;20525;-77
2022/08/13 09:28:24;;;;;;;79.90;13.50;;;;;;;29.37;43.46;101184.53;5007063;28;20608;-77
2022/08/13 09:31:03;;;;;;;8.13;6.00;;;;;;;29.31;43.15;101179.63;4991879;28;20149;-77
2022/08/13 09:33:40;;;;;;;8.98;5.85;;;;;;;29.51;43.68;101175.09;5008577;28;20033;-76
2022/08/13 09:36:27;;;;;;;15.80;6.78;;;;;;;29.50;42.47;101179.69;5018071;28;20486;-77
2022/08/13 09:38:54;;;;;;;25.95;7.90;;;;;;;29.24;43.30;101179.31;5009034;28;20658;-76
2022/08/13 09:41:24;;;;;;;14.50;5.90;;;;;;;29.24;44.37;101173.03;4992962;28;20038;-76
2022/08/13 09:43:56;;;;;;;7.18;5.47;;;;;;;28.78;43.46;101177.16;4996286;28;20088;-78
2022/08/13 09:46:23;;;;;;;6.25;5.15;;;;;;;28.74;44.56;101178.41;5010585;28;20037;-77
2022/08/13 09:48:56;;;;;;;6.07;4.78;;;;;;;28.69;45.06;101180.69;5008165;28;20078;-77
2022/08/13 09:51:30;;;;;;;6.97;5.20;;;;;;;28.56;45.11;101179.03;5007140;28;20058;-77
2022/08/13 09:54:18;;;;;;;6.20;5.15;;;;;;;28.43;45.52;101180.25;5004526;28;20041;-76
2022/08/13 09:56:47;;;;;;;11.45;5.55;;;;;;;28.48;46.74;101176.13;5016772;28;20045;-77
2022/08/13 09:59:19;;;;;;;6.68;5.15;;;;;;;28.28;45.11;101169.69;5042716;28;20049;-78
2022/08/13 10:02:05;;;;;;;6.70;5.18;;;;;;;28.30;46.12;101170.44;4991751;28;20399;-77
2022/08/13 10:04:34;;;;;;;5.28;4.70;;;;;;;28.46;46.62;101164.53;5005293;28;20034;-77
2022/08/13 10:07:01;;;;;;;7.32;5.47;;;;;;;28.37;45.80;101159.06;5022437;28;20100;-77
2022/08/13 10:09:43;;;;;;;6.18;4.75;;;;;;;28.49;45.69;101158.81;4980407;28;20046;-77
2022/08/13 10:12:29;;;;;;;7.72;4.75;;;;;;;28.50;45.30;101152.41;4998155;28;20038;-77
2022/08/13 10:14:56;;;;;;;5.93;5.13;;;;;;;28.55;45.04;101152.84;4997638;28;20054;-78
2022/08/13 10:17:25;;;;;;;7.55;4.97;;;;;;;28.71;44.58;101154.22;5004302;28;20038;-78
2022/08/13 10:20:15;;;;;;;5.75;4.95;;;;;;;28.77;45.07;101154.53;5002775;28;20061;-78
2022/08/13 10:22:42;;;;;;;7.05;5.30;;;;;;;28.79;44.30;101151.66;5006161;28;20030;-78
2022/08/13 10:25:10;;;;;;;5.45;4.82;;;;;;;28.86;44.13;101148.25;5002300;28;20042;-77
2022/08/13 10:27:37;;;;;;;6.25;5.05;;;;;;;28.56;44.63;101140.97;5005292;28;20399;-77
2022/08/13 10:30:17;;;;;;;97.90;18.13;;;;;;;28.53;45.60;101143.97;5003897;28;20674;-78
2022/08/13 10:33:04;;;;;;;25.50;8.02;;;;;;;28.17;45.71;101139.88;5031436;28;20845;-77
2022/08/13 10:35:32;;;;;;;7.88;4.97;;;;;;;28.28;44.90;101141.66;5003336;28;20116;-77
2022/08/13 10:37:59;;;;;;;5.55;5.03;;;;;;;28.17;44.80;101141.75;5006708;28;20053;-78
2022/08/13 10:40:32;;;;;;;5.20;4.70;;;;;;;28.22;45.49;101144.91;5001852;28;20048;-78
2022/08/13 10:43:05;;;;;;;7.40;5.35;;;;;;;28.38;45.24;101136.31;5001116;28;20077;-77
2022/08/13 10:45:46;;;;;;;5.00;4.57;;;;;;;28.32;45.05;101137.69;4998445;28;20049;-77
2022/08/13 10:48:13;;;;;;;5.47;4.93;;;;;;;28.26;45.32;101135.50;5000380;28;20546;-77
2022/08/13 10:50:40;;;;;;;5.18;4.68;;;;;;;28.41;45.73;101136.88;4999133;28;20033;-76
2022/08/13 10:53:55;;;;;;;5.05;4.55;;;;;;;28.37;45.73;101129.16;5029579;28;20038;-77
2022/08/13 10:56:11;;;;;;;5.75;4.47;;;;;;;28.45;45.82;101127.47;4998246;28;20066;-79
2022/08/13 10:58:39;;;;;;;5.38;4.50;;;;;;;28.42;45.13;101129.59;4990186;28;20054;-77
2022/08/13 11:01:20;;;;;;;6.00;4.97;;;;;;;28.46;45.54;101129.19;4998123;28;20045;-76
2022/08/13 11:03:46;;;;;;;5.40;4.90;;;;;;;28.45;46.01;101129.34;4998757;28;20042;-76
2022/08/13 11:06:35;;;;;;;6.57;5.85;;;;;;;28.48;45.78;101124.47;5035849;28;20128;-76
2022/08/13 11:09:04;;;;;;;5.50;5.00;;;;;;;28.55;45.72;101124.81;5022164;28;20048;-78
2022/08/13 11:11:55;;;;;;;13.68;5.85;;;;;;;28.41;46.65;101117.00;5019105;28;21300;-77
2022/08/13 11:14:27;;;;;;;5.88;5.03;;;;;;;28.37;45.21;101116.44;5006127;28;20133;-77
2022/08/13 11:17:04;;;;;;;4.95;4.55;;;;;;;28.47;45.92;101117.31;5006711;28;20578;-77
2022/08/13 11:19:50;;;;;;;6.10;5.10;;;;;;;28.69;45.86;101112.72;5001948;28;20037;-76
2022/08/13 11:22:23;;;;;;;8.18;4.50;;;;;;;28.83;44.56;101115.88;4998935;28;20045;-76
2022/08/13 11:24:56;;;;;;;5.80;3.92;;;;;;;28.86;42.28;101114.78;4989853;28;20503;-76
2022/08/13 11:27:23;;;;;;;4.55;4.10;;;;;;;28.70;42.66;101107.13;4996059;28;20070;-76
2022/08/13 11:29:56;;;;;;;5.15;4.65;;;;;;;28.48;42.27;101110.03;4979176;28;20041;-76
2022/08/13 11:32:23;;;;;;;5.53;4.05;;;;;;;28.32;42.66;101107.81;4990801;28;20141;-76
2022/08/13 11:34:54;;;;;;;7.32;4.90;;;;;;;28.22;43.11;101110.44;5008661;28;20058;-76
2022/08/13 11:37:21;;;;;;;5.60;5.10;;;;;;;28.22;44.09;101115.00;4993612;28;20041;-76
2022/08/13 11:39:48;;;;;;;5.18;4.50;;;;;;;28.21;44.57;101119.59;4991861;28;20050;-76
2022/08/13 11:42:35;;;;;;;4.35;3.95;;;;;;;28.14;45.06;101117.53;4992571;28;20476;-75
2022/08/13 11:45:07;;;;;;;4.53;4.20;;;;;;;28.19;45.28;101113.44;5007912;28;20042;-75
2022/08/13 11:47:41;;;;;;;5.45;4.75;;;;;;;28.19;44.56;101116.16;5011635;28;20034;-76
2022/08/13 11:50:12;;;;;;;5.05;4.55;;;;;;;28.11;45.40;101112.38;5013670;28;20077;-77
2022/08/13 11:52:41;;;;;;;4.32;3.92;;;;;;;28.14;45.99;101114.81;5017902;28;20025;-77
2022/08/13 11:55:11;;;;;;;7.40;4.72;;;;;;;28.23;45.60;101105.88;5017492;28;20057;-77
2022/08/13 11:57:42;;;;;;;4.30;3.90;;;;;;;28.28;46.14;101109.06;4996818;28;20033;-77
2022/08/13 12:00:14;;;;;;;6.45;4.53;;;;;;;28.30;45.67;101107.09;5025203;28;20041;-77
2022/08/13 12:02:57;;;;;;;11.23;5.28;;;;;;;28.24;46.40;101113.03;4979253;28;20064;-77
2022/08/13 12:05:25;;;;;;;7.22;4.95;;;;;;;28.26;45.69;101109.19;5007371;28;20132;-77
2022/08/13 12:07:54;;;;;;;6.53;4.70;;;;;;;28.30;46.42;101107.09;5006760;28;20050;-78
2022/08/13 12:10:27;;;;;;;5.35;4.55;;;;;;;28.25;46.53;101112.03;5010974;28;20034;-77
2022/08/13 12:13:14;;;;;;;6.72;5.00;;;;;;;27.87;46.41;101105.38;5019326;28;20091;-77
2022/08/13 12:15:41;;;;;;;5.72;4.85;;;;;;;27.88;47.25;101109.78;4974985;28;20104;-77
2022/08/13 12:18:28;;;;;;;5.53;5.10;;;;;;;27.88;46.95;101096.22;5006336;28;20042;-77
2022/08/13 12:20:55;;;;;;;5.97;5.25;;;;;;;27.74;47.13;101097.41;5047971;28;20132;-77